Time;durP1;ratioP1;P1;durP2;ratioP2;P2;SDS_P1;SDS_P2;PMS_P1;PMS_P2;Temp;Humidity;BMP_temperature;BMP_pressure;BME280_temperature;BME280_humidity;BME280_pressure;Samples;Min_cycle;Max_cycle;Signal;HPM_P1;HPM_P2
2021/12/22 00:00:25;;;;;;;18.67;9.23;;;3.50;62.00;;;;;;5051897;28;20052;-61
2021/12/22 00:02:51;;;;;;;16.52;8.70;;;3.50;62.10;;;;;;5034163;28;20492;-61
2021/12/22 00:05:24;;;;;;;17.50;8.65;;;3.40;62.00;;;;;;5052098;28;20033;-64
2021/12/22 00:07:51;;;;;;;21.20;8.55;;;3.40;62.00;;;;;;5051869;28;20029;-61
2021/12/22 00:10:18;;;;;;;18.40;8.98;;;3.50;62.10;;;;;;5052046;28;20103;-61
2021/12/22 00:12:44;;;;;;;15.77;8.65;;;3.50;62.30;;;;;;5051813;28;20021;-59
2021/12/22 00:15:11;;;;;;;18.33;9.25;;;3.50;62.30;;;;;;5052033;28;20085;-63
2021/12/22 00:17:37;;;;;;;20.42;10.00;;;3.40;62.50;;;;;;5050838;28;20179;-62
2021/12/22 00:20:04;;;;;;;17.67;9.80;;;3.40;62.50;;;;;;5052062;28;20529;-62
2021/12/22 00:22:30;;;;;;;18.77;9.70;;;3.40;62.70;;;;;;5050431;28;20028;-64
2021/12/22 00:24:56;;;;;;;23.30;10.15;;;3.40;62.80;;;;;;5034074;28;20043;-64
2021/12/22 00:27:23;;;;;;;22.27;9.50;;;3.30;62.80;;;;;;5051412;28;20056;-62
2021/12/22 00:29:50;;;;;;;18.27;9.40;;;3.30;62.90;;;;;;5034281;28;20043;-59
2021/12/22 00:32:17;;;;;;;14.40;8.27;;;3.30;62.90;;;;;;5034189;28;20044;-62
2021/12/22 00:34:51;;;;;;;18.63;8.77;;;3.30;62.90;;;;;;5051305;28;20306;-63
2021/12/22 00:37:36;;;;;;;13.00;8.23;;;3.30;62.80;;;;;;5051630;28;20028;-62
2021/12/22 00:40:03;;;;;;;14.60;7.50;;;3.40;62.80;;;;;;5033927;28;20500;-62
2021/12/22 00:42:29;;;;;;;13.50;7.93;;;3.40;62.70;;;;;;5050996;28;20513;-62
2021/12/22 00:44:55;;;;;;;13.48;7.22;;;3.40;62.50;;;;;;5051752;28;20124;-63
2021/12/22 00:47:25;;;;;;;11.77;7.03;;;3.40;62.30;;;;;;5033445;28;20051;-62
2021/12/22 00:49:50;;;;;;;13.60;7.15;;;3.50;62.20;;;;;;5051606;28;20057;-58
2021/12/22 00:52:16;;;;;;;12.93;6.43;;;3.40;62.00;;;;;;5050196;28;20162;-64
2021/12/22 00:54:42;;;;;;;14.45;6.65;;;3.40;62.00;;;;;;5050847;28;20032;-64
2021/12/22 00:57:10;;;;;;;11.70;7.28;;;3.40;62.00;;;;;;5052346;28;20029;-60
2021/12/22 00:59:36;;;;;;;12.38;7.03;;;3.40;62.00;;;;;;5051007;28;20029;-61
2021/12/22 01:02:05;;;;;;;14.23;6.72;;;3.40;62.00;;;;;;5033388;28;20021;-61
2021/12/22 01:04:31;;;;;;;11.98;6.28;;;3.40;61.90;;;;;;5051119;28;20061;-62
2021/12/22 01:06:57;;;;;;;10.85;6.03;;;3.40;61.90;;;;;;5032999;28;20381;-64
2021/12/22 01:09:23;;;;;;;11.45;6.43;;;3.40;61.80;;;;;;5033512;28;20137;-61
2021/12/22 01:11:50;;;;;;;11.38;5.75;;;3.40;61.70;;;;;;5050931;28;20029;-62
2021/12/22 01:14:17;;;;;;;12.00;6.03;;;3.50;61.50;;;;;;5051415;28;20474;-64
2021/12/22 01:16:48;;;;;;;9.77;5.75;;;3.50;61.60;;;;;;5032828;28;20025;-63
2021/12/22 01:19:21;;;;;;;9.55;5.55;;;3.40;61.40;;;;;;5051777;28;20483;-60
2021/12/22 01:21:54;;;;;;;;;;;3.40;61.40;;;;;;5034436;28;20580;-63
2021/12/22 01:24:31;;;;;;;9.88;4.95;;;3.40;61.50;;;;;;5051256;28;19948;-62
2021/12/22 01:27:04;;;;;;;10.18;5.65;;;3.40;61.40;;;;;;5051071;28;20378;-64
2021/12/22 01:29:32;;;;;;;7.80;5.43;;;3.30;61.40;;;;;;5017325;28;20033;-64
2021/12/22 01:31:58;;;;;;;12.50;6.65;;;3.30;61.50;;;;;;5051680;28;20029;-61
2021/12/22 01:34:25;;;;;;;9.70;6.05;;;3.30;61.60;;;;;;5054473;28;20111;-63
2021/12/22 01:36:51;;;;;;;11.40;6.13;;;3.30;61.80;;;;;;5054181;28;20029;-63
2021/12/22 01:39:17;;;;;;;13.10;6.25;;;3.20;61.90;;;;;;5037000;28;20116;-64
2021/12/22 01:41:43;;;;;;;10.32;5.82;;;3.20;62.10;;;;;;5036482;28;20032;-61
2021/12/22 01:44:10;;;;;;;12.38;6.85;;;3.20;62.10;;;;;;5036571;28;20033;-62
2021/12/22 01:49:09;;;;;;;10.07;6.03;;;3.20;62.10;;;;;;5054721;28;20060;-60
2021/12/22 01:51:38;;;;;;;10.20;6.20;;;3.20;62.20;;;;;;5053818;28;20053;-61
2021/12/22 01:54:27;;;;;;;10.10;6.32;;;3.20;62.20;;;;;;5054685;28;20021;-64
2021/12/22 01:56:53;;;;;;;10.48;6.43;;;3.20;62.10;;;;;;5035242;28;20029;-61
2021/12/22 01:59:20;;;;;;;9.10;5.78;;;3.20;62.20;;;;;;5054180;28;20025;-63
2021/12/22 02:01:47;;;;;;;10.93;5.90;;;3.20;62.80;;;;;;5053277;28;20226;-64
2021/12/22 02:04:13;;;;;;;13.57;5.80;;;3.20;62.10;;;;;;5036189;28;20588;-62
2021/12/22 02:06:58;;;;;;;9.98;5.05;;;3.20;62.00;;;;;;5053633;28;20029;-61
2021/12/22 02:12:11;;;;;;;6.32;4.35;;;3.20;61.60;;;;;;5053963;28;20032;-60
2021/12/22 02:14:40;;;;;;;11.65;4.80;;;3.10;61.40;;;;;;5053517;28;20082;-60
2021/12/22 02:17:09;;;;;;;7.97;5.00;;;3.20;61.30;;;;;;5036133;28;20029;-61
2021/12/22 02:19:56;;;;;;;7.57;4.40;;;3.20;61.10;;;;;;5052902;28;20027;-62
2021/12/22 02:22:24;;;;;;;9.40;4.90;;;3.10;61.60;;;;;;5053884;28;20066;-60
2021/12/22 02:24:55;;;;;;;8.25;5.07;;;3.10;60.80;;;;;;5053085;28;20330;-60
2021/12/22 02:30:27;;;;;;;10.30;4.97;;;3.10;60.90;;;;;;4992064;28;20085;-62
2021/12/22 02:35:39;;;;;;;9.35;5.13;;;3.00;60.80;;;;;;5053511;28;20040;-62
2021/12/22 02:38:12;;;;;;;7.97;5.10;;;3.10;60.90;;;;;;5053449;28;20033;-60
2021/12/22 02:40:39;;;;;;;11.25;5.68;;;3.00;60.90;;;;;;5034693;28;20101;-62
2021/12/22 02:43:05;;;;;;;10.02;5.18;;;3.00;61.00;;;;;;5053159;28;20040;-60
2021/12/22 02:45:36;;;;;;;9.25;5.60;;;3.00;61.00;;;;;;5034229;28;20098;-61
2021/12/22 02:48:04;;;;;;;16.15;6.22;;;3.00;61.20;;;;;;5053761;28;20035;-62
2021/12/22 02:50:30;;;;;;;9.95;5.55;;;3.00;61.20;;;;;;5052855;28;20040;-67
2021/12/22 02:55:43;;;;;;;11.23;6.18;;;3.00;61.30;;;;;;5053632;28;20051;-66
2021/12/22 02:58:15;;;;;;;12.48;5.90;;;3.00;61.60;;;;;;5053309;28;20025;-61
2021/12/22 03:01:07;;;;;;;9.85;6.40;;;2.90;61.30;;;;;;5034921;28;20074;-62
2021/12/22 03:06:05;;;;;;;8.55;5.88;;;2.90;61.60;;;;;;5053393;28;20029;-62
2021/12/22 03:08:31;;;;;;;10.43;6.07;;;2.90;61.70;;;;;;5052507;28;20017;-62
2021/12/22 03:10:57;;;;;;;14.15;6.50;;;2.90;61.80;;;;;;5035202;28;20051;-60
2021/12/22 03:13:24;;;;;;;11.75;6.88;;;2.90;61.70;;;;;;5035034;28;20466;-62
2021/12/22 03:15:50;;;;;;;10.75;6.90;;;2.90;62.10;;;;;;5052692;28;20027;-60
2021/12/22 03:18:17;;;;;;;12.32;6.93;;;2.90;62.40;;;;;;5052367;28;20021;-63
2021/12/22 03:20:46;;;;;;;10.63;6.45;;;2.80;62.70;;;;;;5052707;28;20474;-62
2021/12/22 03:23:12;;;;;;;11.68;7.05;;;2.70;62.90;;;;;;5035102;28;20024;-61
2021/12/22 03:25:39;;;;;;;15.75;7.22;;;2.70;63.20;;;;;;5052104;28;20107;-60
2021/12/22 03:28:05;;;;;;;12.25;7.40;;;2.60;63.30;;;;;;5052343;28;20045;-58
2021/12/22 03:30:31;;;;;;;12.52;7.13;;;2.50;63.50;;;;;;5051913;28;20159;-62
2021/12/22 03:32:57;;;;;;;10.13;6.82;;;2.50;63.90;;;;;;5034087;28;20029;-62
2021/12/22 03:35:23;;;;;;;10.88;6.78;;;2.50;64.00;;;;;;5035112;28;20033;-63
2021/12/22 03:37:56;;;;;;;11.60;7.18;;;2.40;64.10;;;;;;5034069;28;20210;-61
2021/12/22 03:40:23;;;;;;;12.45;7.53;;;2.40;64.10;;;;;;5053053;28;20032;-58
2021/12/22 03:42:49;;;;;;;14.43;7.97;;;2.40;64.30;;;;;;5052196;28;20274;-60
2021/12/22 03:45:15;;;;;;;13.73;7.90;;;2.40;64.10;;;;;;5053027;28;20465;-60
2021/12/22 03:47:41;;;;;;;21.60;8.20;;;2.50;64.20;;;;;;5051554;28;20049;-58
2021/12/22 03:50:16;;;;;;;13.57;8.10;;;2.50;64.00;;;;;;5053839;28;20377;-61
2021/12/22 03:52:46;;;;;;;15.77;7.93;;;2.60;64.10;;;;;;5030461;28;20067;-63
2021/12/22 04:01:57;;;;;;;13.40;7.30;;;2.60;63.70;;;;;;4991680;28;20150;-61
2021/12/22 04:04:23;;;;;;;13.18;8.25;;;2.60;63.80;;;;;;4990071;28;20113;-60
2021/12/22 04:06:50;;;;;;;12.48;8.23;;;2.60;63.80;;;;;;4989791;28;20442;-62
2021/12/22 04:09:17;;;;;;;16.20;8.18;;;2.60;63.80;;;;;;4990342;28;20112;-61
2021/12/22 04:11:44;;;;;;;13.52;8.93;;;2.60;64.50;;;;;;4989624;28;20034;-60
2021/12/22 04:14:10;;;;;;;13.43;8.23;;;2.60;63.80;;;;;;4973719;28;20058;-61
2021/12/22 04:16:36;;;;;;;13.27;8.45;;;2.60;63.80;;;;;;4973465;28;20037;-61
2021/12/22 04:19:06;;;;;;;11.95;8.30;;;2.60;63.80;;;;;;4990236;28;20039;-61
2021/12/22 04:21:56;;;;;;;14.52;8.70;;;2.60;63.60;;;;;;4989419;28;20042;-61
2021/12/22 04:24:38;;;;;;;16.45;8.48;;;2.50;63.60;;;;;;4960609;28;20065;-60
2021/12/22 04:27:23;;;;;;;12.85;7.93;;;2.60;63.60;;;;;;4995899;28;20054;-60
2021/12/22 04:30:02;;;;;;;17.35;8.55;;;2.60;63.70;;;;;;5067984;28;20054;-60
2021/12/22 04:32:35;;;;;;;13.80;8.52;;;2.60;63.60;;;;;;5071277;28;20021;-61
2021/12/22 04:35:24;;;;;;;14.73;8.80;;;2.60;63.60;;;;;;5072189;28;20041;-60
2021/12/22 04:37:50;;;;;;;14.98;8.80;;;2.60;63.60;;;;;;5071816;28;20032;-61
2021/12/22 04:40:16;;;;;;;13.35;9.00;;;2.60;63.70;;;;;;5072019;28;20111;-61
2021/12/22 04:42:43;;;;;;;17.30;10.02;;;2.60;63.60;;;;;;5070855;28;20024;-59
2021/12/22 04:45:10;;;;;;;15.85;9.73;;;2.50;63.60;;;;;;5071902;28;20044;-58
2021/12/22 04:47:36;;;;;;;18.27;9.30;;;2.50;63.60;;;;;;5071461;28;20392;-61
2021/12/22 04:50:10;;;;;;;17.25;10.85;;;2.60;63.60;;;;;;5071700;28;20473;-60
2021/12/22 04:52:44;;;;;;;;;;;2.50;63.60;;;;;;5071473;28;20442;-62
2021/12/22 04:55:10;;;;;;;18.35;9.02;;;2.60;63.80;;;;;;5070614;28;20433;-61
2021/12/22 04:57:36;;;;;;;16.63;9.40;;;2.60;63.70;;;;;;5071446;28;20056;-64
2021/12/22 05:00:05;;;;;;;16.67;9.35;;;2.50;63.60;;;;;;5071857;28;20067;-60
2021/12/22 05:02:31;;;;;;;14.73;9.65;;;2.50;63.80;;;;;;5071618;28;20477;-65
2021/12/22 05:05:12;;;;;;;16.38;10.27;;;2.60;64.00;;;;;;5070119;28;20089;-61
2021/12/22 05:07:38;;;;;;;22.30;11.05;;;2.50;63.70;;;;;;5068287;28;20350;-68
2021/12/22 05:10:06;;;;;;;18.88;10.77;;;2.50;63.90;;;;;;5073909;28;20025;-62
2021/12/22 05:12:32;;;;;;;18.20;10.27;;;2.50;64.00;;;;;;5074793;28;20100;-62
2021/12/22 05:14:58;;;;;;;19.98;10.93;;;2.50;64.10;;;;;;5072931;28;20035;-64
2021/12/22 05:20:16;;;;;;;18.27;10.80;;;2.50;64.10;;;;;;5046110;28;20120;-61
2021/12/22 05:22:43;;;;;;;23.25;11.13;;;2.50;64.30;;;;;;5074789;28;20104;-64
2021/12/22 05:25:10;;;;;;;21.00;10.18;;;2.50;64.10;;;;;;5073602;28;20068;-62
2021/12/22 05:27:37;;;;;;;18.73;11.35;;;2.50;64.20;;;;;;5067550;28;20091;-65
2021/12/22 05:30:05;;;;;;;17.35;10.88;;;2.50;64.20;;;;;;5054799;28;20017;-60
2021/12/22 05:32:32;;;;;;;25.50;11.13;;;2.50;64.10;;;;;;5054594;28;20039;-62
2021/12/22 05:35:02;;;;;;;30.55;11.80;;;2.50;64.20;;;;;;5054464;28;20332;-62
2021/12/22 05:37:28;;;;;;;20.20;12.27;;;2.50;64.00;;;;;;5036592;28;20021;-64
2021/12/22 05:39:57;;;;;;;20.10;11.77;;;2.50;64.10;;;;;;5053936;28;20196;-65
2021/12/22 05:42:25;;;;;;;22.08;11.55;;;2.40;64.20;;;;;;5021193;28;20434;-63
2021/12/22 05:44:50;;;;;;;26.92;12.30;;;2.40;64.20;;;;;;5054032;28;20032;-62
2021/12/22 05:47:35;;;;;;;23.90;12.40;;;2.40;64.30;;;;;;5055013;28;20390;-65
2021/12/22 05:50:03;;;;;;;23.98;12.80;;;2.40;64.50;;;;;;5054147;28;20029;-59
2021/12/22 05:52:29;;;;;;;23.05;11.73;;;2.40;64.50;;;;;;5054675;28;20474;-65
2021/12/22 05:54:55;;;;;;;19.45;11.82;;;2.40;64.40;;;;;;5036290;28;20036;-61
2021/12/22 05:57:21;;;;;;;20.13;11.98;;;2.40;64.30;;;;;;5036458;28;20448;-63
2021/12/22 05:59:47;;;;;;;19.63;11.77;;;2.40;64.30;;;;;;5036027;28;20033;-65
2021/12/22 06:02:13;;;;;;;22.10;13.07;;;2.30;64.90;;;;;;5054444;28;20408;-61
2021/12/22 06:04:46;;;;;;;22.38;12.27;;;2.40;64.40;;;;;;5054863;28;20151;-63
2021/12/22 06:07:12;;;;;;;25.77;12.30;;;2.40;64.30;;;;;;5034747;28;20101;-62
2021/12/22 06:09:38;;;;;;;20.23;11.40;;;2.40;64.40;;;;;;5053620;28;20052;-62
2021/12/22 06:12:06;;;;;;;15.88;10.23;;;2.40;64.50;;;;;;5053989;28;20083;-61
2021/12/22 06:14:35;;;;;;;23.90;11.20;;;2.40;64.50;;;;;;5036163;28;20033;-62
2021/12/22 06:17:00;;;;;;;27.42;12.13;;;2.40;64.40;;;;;;5052596;28;20199;-62
2021/12/22 06:19:26;;;;;;;29.80;11.82;;;2.40;64.40;;;;;;5052573;28;20486;-62
2021/12/22 06:21:52;;;;;;;26.95;11.45;;;2.30;64.30;;;;;;5052763;28;20056;-62
2021/12/22 06:24:18;;;;;;;23.00;11.77;;;2.30;64.30;;;;;;5053730;28;20429;-66
2021/12/22 06:26:43;;;;;;;24.92;11.88;;;2.30;64.30;;;;;;5052981;28;20025;-67
2021/12/22 06:29:09;;;;;;;19.67;11.25;;;2.30;64.50;;;;;;5035918;28;20355;-62
2021/12/22 06:31:36;;;;;;;25.85;12.60;;;2.30;64.50;;;;;;5036458;28;20021;-62
2021/12/22 06:34:09;;;;;;;21.48;11.85;;;2.30;64.50;;;;;;5054589;28;20497;-71
2021/12/22 06:36:35;;;;;;;19.27;11.85;;;2.30;64.50;;;;;;5054302;28;20474;-67
2021/12/22 06:39:02;;;;;;;24.38;13.02;;;2.30;64.50;;;;;;5053577;28;20032;-65
2021/12/22 06:41:30;;;;;;;32.30;13.25;;;2.30;64.50;;;;;;5054081;28;20021;-64
2021/12/22 06:43:55;;;;;;;33.75;13.88;;;2.20;64.60;;;;;;5052687;28;20042;-64
2021/12/22 06:46:21;;;;;;;23.73;12.80;;;2.20;64.70;;;;;;5054343;28;20459;-69
2021/12/22 06:48:47;;;;;;;29.85;14.02;;;2.20;64.70;;;;;;5052557;28;20033;-65
2021/12/22 06:51:13;;;;;;;20.80;13.05;;;2.20;64.60;;;;;;5053887;28;20031;-65
2021/12/22 06:53:40;;;;;;;21.33;12.45;;;2.30;64.70;;;;;;5053978;28;20150;-70
2021/12/22 06:56:09;;;;;;;23.75;13.30;;;2.30;64.80;;;;;;5050200;28;20025;-66
2021/12/22 06:58:35;;;;;;;21.10;13.55;;;2.30;64.90;;;;;;5034962;28;20120;-64
2021/12/22 07:01:01;;;;;;;23.00;12.43;;;2.30;64.80;;;;;;5053554;28;20445;-72
2021/12/22 07:03:27;;;;;;;33.75;14.77;;;2.30;64.80;;;;;;5053005;28;20033;-73
2021/12/22 07:05:53;;;;;;;20.08;13.18;;;2.30;64.80;;;;;;5034804;28;20052;-72
2021/12/22 07:08:18;;;;;;;25.88;14.13;;;2.30;64.90;;;;;;5051694;28;20025;-69
2021/12/22 07:10:44;;;;;;;28.67;14.40;;;2.30;65.00;;;;;;5052804;28;20044;-67
2021/12/22 07:13:11;;;;;;;26.52;14.73;;;2.30;64.80;;;;;;5051811;28;20210;-70
2021/12/22 07:15:37;;;;;;;23.83;14.05;;;2.30;64.80;;;;;;5053459;28;20039;-71
2021/12/22 07:18:08;;;;;;;23.88;14.45;;;2.40;64.70;;;;;;5034778;28;20145;-71
2021/12/22 07:20:34;;;;;;;42.92;16.33;;;2.40;64.60;;;;;;5033848;28;20124;-69
2021/12/22 07:23:00;;;;;;;34.60;15.93;;;2.40;64.70;;;;;;5052712;28;20032;-72
2021/12/22 07:25:26;;;;;;;24.85;14.80;;;2.40;64.80;;;;;;5052970;28;20112;-70
2021/12/22 07:27:51;;;;;;;20.92;13.85;;;2.50;64.60;;;;;;5050186;28;20048;-73
2021/12/22 07:30:17;;;;;;;25.67;14.38;;;2.50;64.50;;;;;;5072602;28;20353;-66
2021/12/22 07:32:44;;;;;;;28.67;14.90;;;2.50;64.30;;;;;;5072380;28;20027;-63
2021/12/22 07:35:34;;;;;;;33.22;25.52;;;2.50;64.30;;;;;;5073562;28;20040;-65
2021/12/22 07:38:31;;;;;;;31.08;27.80;;;3.00;64.70;;;;;;5057382;28;20028;-68
2021/12/22 07:40:59;;;;;;;28.25;18.67;;;3.80;61.00;;;;;;5071120;28;20059;-69
2021/12/22 07:43:27;;;;;;;22.20;13.00;;;4.00;60.30;;;;;;5071484;28;20027;-70
2021/12/22 07:45:53;;;;;;;23.25;14.40;;;4.00;60.30;;;;;;5072280;28;20032;-67
2021/12/22 07:48:19;;;;;;;23.75;14.68;;;3.90;60.30;;;;;;5072656;28;20027;-66
2021/12/22 07:50:45;;;;;;;29.42;15.30;;;3.90;60.50;;;;;;5071347;28;20326;-71
2021/12/22 07:53:11;;;;;;;29.52;15.82;;;3.90;60.50;;;;;;5072574;28;20044;-67
2021/12/22 07:55:37;;;;;;;26.88;14.55;;;3.80;60.50;;;;;;5071179;28;20037;-65
2021/12/22 07:58:04;;;;;;;25.02;14.27;;;3.90;60.40;;;;;;5070264;28;20033;-65
2021/12/22 08:00:30;;;;;;;25.77;14.73;;;3.80;60.10;;;;;;5072419;28;20039;-68
2021/12/22 08:02:56;;;;;;;33.22;15.30;;;3.80;59.80;;;;;;5071225;28;20107;-70
2021/12/22 08:05:22;;;;;;;29.85;14.57;;;3.70;60.00;;;;;;5072245;28;20124;-68
2021/12/22 08:07:47;;;;;;;22.15;14.93;;;3.70;60.00;;;;;;5071497;28;20449;-77
2021/12/22 08:10:13;;;;;;;24.50;14.80;;;3.60;60.10;;;;;;5072449;28;20031;-68
2021/12/22 08:12:39;;;;;;;28.52;15.30;;;3.60;60.30;;;;;;5072511;28;20462;-63
2021/12/22 08:15:06;;;;;;;36.53;15.32;;;3.60;60.50;;;;;;5071656;28;20420;-65
2021/12/22 08:17:32;;;;;;;22.10;13.70;;;3.60;60.50;;;;;;5070696;28;20032;-63
2021/12/22 08:19:59;;;;;;;24.20;14.73;;;3.70;60.50;;;;;;5071623;28;20081;-65
2021/12/22 08:22:25;;;;;;;26.00;14.05;;;3.70;60.20;;;;;;5072202;28;20438;-66
2021/12/22 08:24:51;;;;;;;27.05;15.13;;;3.60;60.10;;;;;;5071770;28;20039;-71
2021/12/22 08:27:21;;;;;;;23.25;14.43;;;3.60;60.30;;;;;;5067224;28;20045;-66
2021/12/22 08:29:48;;;;;;;27.38;14.98;;;3.60;60.30;;;;;;5034113;28;20025;-68
2021/12/22 08:32:14;;;;;;;35.45;15.40;;;3.60;60.30;;;;;;5033561;28;20057;-67
2021/12/22 08:34:41;;;;;;;32.67;15.20;;;3.60;60.40;;;;;;5051955;28;20053;-65
2021/12/22 08:39:53;;;;;;;24.08;14.48;;;3.70;60.50;;;;;;5050916;28;20036;-64
2021/12/22 08:42:20;;;;;;;29.02;15.60;;;3.70;60.50;;;;;;5051398;28;20386;-69
2021/12/22 08:44:46;;;;;;;23.42;14.48;;;3.70;60.20;;;;;;5051283;28;20335;-69
2021/12/22 08:47:11;;;;;;;26.48;15.65;;;3.70;60.20;;;;;;5050601;28;20025;-64
2021/12/22 08:49:37;;;;;;;36.28;16.52;;;3.70;60.00;;;;;;5051214;28;20025;-66
2021/12/22 08:52:03;;;;;;;28.27;15.00;;;3.70;60.00;;;;;;5051028;28;20359;-66
2021/12/22 08:54:29;;;;;;;27.25;16.30;;;3.70;60.50;;;;;;5051388;28;20424;-68
2021/12/22 08:56:55;;;;;;;29.00;15.30;;;3.80;60.60;;;;;;5050933;28;20505;-64
2021/12/22 08:59:22;;;;;;;22.80;14.20;;;3.90;60.30;;;;;;5052011;28;20025;-64
2021/12/22 09:01:49;;;;;;;27.05;14.52;;;3.90;60.00;;;;;;5033669;28;20021;-64
2021/12/22 09:04:15;;;;;;;26.15;15.00;;;4.00;59.90;;;;;;5050391;28;20033;-64
2021/12/22 09:06:41;;;;;;;28.45;15.75;;;4.00;59.50;;;;;;5051602;28;20029;-64
2021/12/22 09:09:08;;;;;;;31.25;15.80;;;4.00;59.40;;;;;;5032970;28;20032;-64
2021/12/22 09:11:34;;;;;;;31.95;15.40;;;3.90;59.70;;;;;;5051277;28;20078;-65
2021/12/22 09:14:03;;;;;;;31.77;16.25;;;4.10;59.90;;;;;;5051081;28;20484;-64
2021/12/22 09:16:29;;;;;;;29.73;15.63;;;4.20;59.70;;;;;;5051412;28;20096;-65
2021/12/22 09:18:56;;;;;;;24.33;15.65;;;4.30;59.10;;;;;;5050889;28;20025;-65
2021/12/22 09:21:22;;;;;;;25.08;14.93;;;4.20;59.00;;;;;;5033561;28;20381;-66
2021/12/22 09:23:48;;;;;;;26.20;14.10;;;4.20;58.90;;;;;;5051431;28;20078;-64
2021/12/22 09:26:15;;;;;;;25.73;15.63;;;4.10;59.00;;;;;;5050793;28;20103;-65
2021/12/22 09:28:41;;;;;;;26.48;15.48;;;4.10;59.40;;;;;;5051240;28;20049;-65
2021/12/22 09:31:07;;;;;;;26.52;16.50;;;4.20;59.40;;;;;;5050959;28;20087;-68
2021/12/22 09:33:33;;;;;;;31.83;16.48;;;4.30;59.20;;;;;;5033531;28;20031;-64
2021/12/22 09:36:00;;;;;;;33.50;16.75;;;4.30;59.00;;;;;;5032973;28;20465;-65
2021/12/22 09:38:26;;;;;;;35.10;17.98;;;4.50;59.00;;;;;;5051317;28;20117;-65
2021/12/22 09:40:52;;;;;;;31.42;16.55;;;4.60;58.60;;;;;;5051365;28;20065;-67
2021/12/22 09:43:18;;;;;;;31.05;18.02;;;4.70;58.20;;;;;;5050546;28;20036;-63
2021/12/22 09:45:48;;;;;;;28.40;17.60;;;4.80;58.20;;;;;;5050159;28;20033;-63
2021/12/22 09:48:27;;;;;;;35.92;18.60;;;5.00;58.10;;;;;;5034201;28;20133;-64
2021/12/22 09:52:16;;;;;;;28.58;16.60;;;4.90;56.90;;;;;;5051919;28;20024;-65
2021/12/22 09:53:43;;;;;;;27.48;17.00;;;4.90;57.10;;;;;;5050083;28;20436;-64
2021/12/22 09:56:10;;;;;;;31.02;17.52;;;4.90;57.30;;;;;;5054149;28;20029;-64
2021/12/22 09:58:39;;;;;;;40.28;22.50;;;5.10;57.30;;;;;;5054404;28;20029;-63
2021/12/22 10:01:05;;;;;;;28.05;16.20;;;5.20;57.00;;;;;;5054068;28;20382;-65
2021/12/22 10:03:31;;;;;;;32.50;17.85;;;5.30;57.00;;;;;;5054702;28;20029;-66
2021/12/22 10:05:57;;;;;;;33.88;16.98;;;5.30;56.40;;;;;;5035657;28;20473;-68
2021/12/22 10:08:25;;;;;;;29.48;16.73;;;5.30;56.00;;;;;;5054290;28;20036;-64
2021/12/22 10:11:04;;;;;;;29.52;16.50;;;5.20;56.40;;;;;;5054320;28;20025;-64
2021/12/22 10:13:31;;;;;;;31.52;17.85;;;5.20;56.10;;;;;;5054857;28;20053;-67
2021/12/22 10:15:59;;;;;;;34.38;17.30;;;5.20;56.00;;;;;;5035878;28;20427;-70
2021/12/22 10:18:28;;;;;;;26.55;17.38;;;5.40;56.20;;;;;;5019592;28;20147;-64
2021/12/22 10:21:21;;;;;;;30.30;17.42;;;5.30;55.40;;;;;;5036172;28;20120;-66
2021/12/22 10:23:50;;;;;;;26.90;17.23;;;5.20;55.90;;;;;;5036239;28;20382;-66
2021/12/22 10:26:22;;;;;;;30.75;17.63;;;5.30;56.40;;;;;;5053209;28;20458;-63
2021/12/22 10:28:55;;;;;;;32.70;18.00;;;5.20;55.80;;;;;;5054208;28;20051;-63
2021/12/22 10:31:35;;;;;;;44.20;19.00;;;5.10;55.90;;;;;;5053014;28;20595;-65
2021/12/22 10:34:06;;;;;;;27.00;17.33;;;5.10;56.70;;;;;;5053432;28;20036;-68
2021/12/22 10:36:44;;;;;;;37.22;19.15;;;5.30;57.00;;;;;;5036011;28;20473;-65
2021/12/22 10:39:27;;;;;;;30.77;19.02;;;5.50;55.10;;;;;;5053299;28;20025;-68
2021/12/22 10:42:08;;;;;;;26.98;18.88;;;5.20;55.40;;;;;;5054038;28;20070;-68
2021/12/22 10:44:44;;;;;;;30.08;19.88;;;5.00;56.40;;;;;;5053429;28;20033;-65
2021/12/22 10:47:22;;;;;;;34.15;18.35;;;4.90;57.10;;;;;;5035164;28;20446;-65
2021/12/22 10:50:04;;;;;;;30.88;18.95;;;4.80;57.20;;;;;;5035942;28;20111;-63
2021/12/22 10:52:31;;;;;;;32.28;20.17;;;4.60;58.10;;;;;;5053711;28;20470;-66
2021/12/22 10:55:11;;;;;;;37.17;19.73;;;4.50;58.10;;;;;;5053253;28;20449;-66
2021/12/22 10:57:39;;;;;;;25.10;16.73;;;4.40;58.70;;;;;;5053197;28;20048;-65
2021/12/22 11:00:14;;;;;;;34.28;20.00;;;4.60;58.50;;;;;;5034805;28;20097;-67
2021/12/22 11:02:44;;;;;;;36.72;20.73;;;4.60;58.20;;;;;;5053262;28;20025;-63
2021/12/22 11:05:28;;;;;;;38.40;18.92;;;4.70;58.40;;;;;;5052297;28;20065;-63
2021/12/22 11:07:54;;;;;;;35.00;20.13;;;4.70;58.00;;;;;;5053163;28;20021;-66
2021/12/22 11:10:39;;;;;;;30.27;18.42;;;4.80;57.90;;;;;;5034572;28;20432;-64
2021/12/22 11:13:06;;;;;;;32.40;19.23;;;5.00;58.60;;;;;;5053516;28;20101;-68
2021/12/22 11:15:43;;;;;;;27.52;19.27;;;5.60;57.10;;;;;;5053057;28;20025;-71
2021/12/22 11:18:30;;;;;;;35.63;21.42;;;6.00;55.50;;;;;;5002030;28;20033;-70
2021/12/22 11:21:21;;;;;;;35.08;21.90;;;5.80;54.60;;;;;;5052478;28;20119;-65
2021/12/22 11:23:47;;;;;;;32.88;21.38;;;5.40;55.80;;;;;;5034960;28;20052;-66
2021/12/22 11:26:13;;;;;;;31.98;19.73;;;5.30;57.10;;;;;;5052278;28;20017;-66
2021/12/22 11:28:39;;;;;;;36.97;20.63;;;5.70;57.20;;;;;;5052389;28;20045;-63
2021/12/22 11:31:07;;;;;;;33.58;21.02;;;6.10;55.80;;;;;;5052077;28;20060;-68
2021/12/22 11:33:34;;;;;;;34.53;21.15;;;6.10;54.80;;;;;;5052007;28;20028;-64
2021/12/22 11:36:02;;;;;;;34.20;20.50;;;6.10;55.00;;;;;;5052297;28;20025;-63
2021/12/22 11:38:30;;;;;;;27.67;19.55;;;6.10;54.70;;;;;;5052011;28;20481;-65
2021/12/22 11:41:09;;;;;;;64.30;37.65;;;5.90;54.40;;;;;;5052694;28;20031;-63
2021/12/22 11:43:40;;;;;;;30.85;20.65;;;5.50;55.60;;;;;;5052450;28;20079;-68
2021/12/22 11:46:07;;;;;;;31.55;20.42;;;5.20;56.60;;;;;;5051273;28;20048;-68
2021/12/22 11:48:38;;;;;;;33.13;20.42;;;5.00;56.90;;;;;;5034758;28;20156;-62
2021/12/22 11:51:44;;;;;;;35.97;21.95;;;4.80;57.30;;;;;;5033761;28;20021;-65
2021/12/22 11:54:10;;;;;;;36.05;21.90;;;4.80;57.90;;;;;;5051112;28;20087;-67
2021/12/22 11:56:46;;;;;;;31.60;21.10;;;4.80;58.40;;;;;;5051615;28;20470;-68
2021/12/22 11:59:31;;;;;;;36.47;20.92;;;4.60;58.80;;;;;;5032310;28;20025;-66
2021/12/22 12:02:18;;;;;;;33.80;22.13;;;4.70;58.50;;;;;;5033932;28;20020;-62
2021/12/22 12:04:44;;;;;;;55.28;25.85;;;5.00;58.50;;;;;;5051479;28;20040;-64
2021/12/22 12:07:10;;;;;;;53.67;29.08;;;5.00;58.10;;;;;;5033417;28;20033;-67
2021/12/22 12:09:45;;;;;;;50.65;30.17;;;4.90;58.00;;;;;;5033420;28;20025;-64
2021/12/22 12:12:49;;;;;;;39.05;22.83;;;4.90;58.20;;;;;;5033713;28;20060;-67
2021/12/22 12:16:02;;;;;;;43.42;22.00;;;4.90;58.20;;;;;;5028858;28;20037;-65
2021/12/22 12:21:59;;;;;;;35.10;22.30;;;5.00;57.70;;;;;;4984522;28;20040;-67
2021/12/22 12:24:30;;;;;;;41.10;21.83;;;5.00;57.80;;;;;;5032795;28;20078;-66
2021/12/22 12:27:02;;;;;;;35.75;21.92;;;5.10;57.90;;;;;;5033217;28;20098;-65
2021/12/22 12:29:54;;;;;;;32.47;20.88;;;5.20;57.90;;;;;;5032834;28;20260;-65
2021/12/22 12:32:50;;;;;;;36.17;21.73;;;5.40;57.70;;;;;;5032751;28;20055;-64
2021/12/22 12:35:31;;;;;;;39.97;24.50;;;5.30;57.10;;;;;;5032420;28;20116;-71
2021/12/22 12:38:08;;;;;;;38.35;23.77;;;5.10;57.50;;;;;;5050555;28;20039;-67
2021/12/22 12:40:55;;;;;;;45.70;25.55;;;4.80;58.30;;;;;;5051021;28;20079;-68
2021/12/22 12:43:40;;;;;;;42.97;25.90;;;4.50;59.00;;;;;;5032442;28;20025;-63
2021/12/22 12:46:38;;;;;;;38.10;22.25;;;4.50;59.70;;;;;;5050923;28;20033;-63
2021/12/22 12:49:03;;;;;;;37.65;21.15;;;4.60;59.60;;;;;;5051059;28;20052;-65
2021/12/22 12:51:44;;;;;;;38.80;22.52;;;4.70;59.40;;;;;;5032508;28;20124;-62
2021/12/22 12:54:16;;;;;;;39.28;23.52;;;4.70;59.40;;;;;;5032373;28;20032;-68
2021/12/22 12:56:45;;;;;;;40.97;24.27;;;4.60;59.30;;;;;;5051066;28;20062;-63
2021/12/22 12:59:25;;;;;;;36.70;22.73;;;4.60;59.50;;;;;;5032439;28;20137;-66
2021/12/22 13:01:50;;;;;;;36.50;23.02;;;4.70;59.30;;;;;;5050002;28;20029;-63
2021/12/22 13:04:26;;;;;;;33.50;21.98;;;4.70;60.00;;;;;;5031984;28;20120;-67
2021/12/22 13:07:04;;;;;;;36.00;23.52;;;4.70;59.30;;;;;;5050560;28;20067;-70
2021/12/22 13:09:43;;;;;;;37.85;21.73;;;4.60;59.30;;;;;;5048203;28;20029;-66
2021/12/22 13:12:34;;;;;;;38.22;22.67;;;4.70;59.40;;;;;;5031694;28;20478;-66
2021/12/22 13:17:58;;;;;;;33.20;20.75;;;4.60;59.20;;;;;;5048530;28;20256;-66
2021/12/22 13:20:34;;;;;;;39.33;23.08;;;4.60;59.30;;;;;;5030411;28;20029;-64
2021/12/22 13:23:05;;;;;;;40.25;23.13;;;4.60;59.30;;;;;;5048209;28;20029;-66
2021/12/22 13:25:39;;;;;;;38.00;23.58;;;4.60;59.50;;;;;;5030678;28;20394;-66
2021/12/22 13:28:16;;;;;;;37.35;22.45;;;4.60;59.60;;;;;;5047617;28;20053;-62
2021/12/22 13:30:46;;;;;;;43.80;23.33;;;4.60;59.80;;;;;;5053575;28;20147;-62